createdAt,value
2023-02-13T00:00:52.373Z,5.90
2023-02-13T00:03:25.628Z,6.40
2023-02-13T00:05:58.614Z,6.10
2023-02-13T00:08:31.484Z,6.00
2023-02-13T00:11:04.333Z,6.10
2023-02-13T00:13:41.825Z,5.90
2023-02-13T00:16:14.963Z,6.00
2023-02-13T00:18:47.716Z,5.90
2023-02-13T00:21:20.522Z,6.00
2023-02-13T00:23:53.368Z,5.60
2023-02-13T00:26:26.134Z,6.10
2023-02-13T00:28:59.784Z,5.90
2023-02-13T00:31:32.826Z,5.93
2023-02-13T00:34:05.663Z,6.10
2023-02-13T00:36:38.904Z,6.03
2023-02-13T00:39:13.033Z,5.90
2023-02-13T00:41:45.974Z,5.90
2023-02-13T00:44:19.004Z,5.80
2023-02-13T00:46:51.924Z,5.80
2023-02-13T00:49:29.051Z,5.80
2023-02-13T00:52:02.440Z,6.10
2023-02-13T00:54:35.272Z,5.70
2023-02-13T00:57:08.297Z,5.90
2023-02-13T00:59:40.905Z,5.80
2023-02-13T01:02:13.702Z,5.80
2023-02-13T01:04:46.832Z,5.60
2023-02-13T01:07:19.784Z,5.60
2023-02-13T01:09:52.820Z,5.33
2023-02-13T01:12:25.688Z,5.60
2023-02-13T01:14:58.510Z,5.87
2023-02-13T01:17:31.403Z,5.53
2023-02-13T01:20:04.665Z,5.40
2023-02-13T01:22:40.637Z,5.30
2023-02-13T01:25:14.123Z,5.63
2023-02-13T01:27:47.266Z,5.60
2023-02-13T01:30:21.676Z,5.50
2023-02-13T01:32:54.679Z,5.50
2023-02-13T01:35:27.434Z,5.80
2023-02-13T01:38:00.251Z,5.50
2023-02-13T01:40:33.725Z,5.50
2023-02-13T01:43:06.963Z,5.50
2023-02-13T01:45:39.637Z,5.40
2023-02-13T01:48:17.508Z,5.50
2023-02-13T01:50:58.444Z,5.60
2023-02-13T01:53:39.208Z,5.60
2023-02-13T01:56:26.327Z,5.70
2023-02-13T01:59:01.350Z,5.60
2023-02-13T02:01:39.638Z,5.70
2023-02-13T02:04:20.065Z,6.10
2023-02-13T02:06:54.859Z,6.10
2023-02-13T02:09:29.388Z,6.20
2023-02-13T02:12:06.482Z,6.10
2023-02-13T02:14:40.617Z,6.20
2023-02-13T02:17:13.917Z,6.10
2023-02-13T02:20:23.868Z,5.90
2023-02-13T02:23:30.998Z,6.00
2023-02-13T02:26:14.642Z,6.10
2023-02-13T02:29:22.596Z,6.23
2023-02-13T02:32:14.168Z,6.23
2023-02-13T02:34:54.838Z,6.30
2023-02-13T02:37:54.897Z,6.30
2023-02-13T02:40:46.100Z,6.17
2023-02-13T02:43:38.983Z,6.10
2023-02-13T02:46:30.055Z,6.00
2023-02-13T02:49:24.975Z,6.30
2023-02-13T02:52:06.137Z,6.20
2023-02-13T02:55:00.811Z,6.30
2023-02-13T02:57:36.562Z,6.30
2023-02-13T03:00:27.573Z,6.50
2023-02-13T03:03:18.168Z,6.37
2023-02-13T03:06:10.326Z,5.90
2023-02-13T03:09:04.591Z,6.20
2023-02-13T03:11:54.802Z,6.13
2023-02-13T03:14:30.114Z,6.30
2023-02-13T03:17:20.833Z,6.10
2023-02-13T03:20:28.851Z,6.10
2023-02-13T03:23:25.263Z,6.70
2023-02-13T03:26:03.020Z,6.40
2023-02-13T03:29:00.757Z,6.70
2023-02-13T03:31:41.329Z,6.40
2023-02-13T03:34:21.176Z,6.00
2023-02-13T03:37:25.455Z,5.70
2023-02-13T03:40:09.523Z,5.70
2023-02-13T03:42:47.017Z,5.40
2023-02-13T03:45:42.337Z,5.20
2023-02-13T03:48:30.587Z,5.20
2023-02-13T03:51:05.403Z,5.40
2023-02-13T03:53:40.261Z,5.70
2023-02-13T03:56:32.080Z,5.50
2023-02-13T03:59:21.994Z,5.80
2023-02-13T04:01:56.977Z,5.40
2023-02-13T04:04:49.865Z,5.20
2023-02-13T04:07:33.918Z,5.20
2023-02-13T04:10:08.605Z,5.07
2023-02-13T04:12:43.320Z,4.80
2023-02-13T04:15:18.645Z,5.00
2023-02-13T04:18:10.608Z,5.07
2023-02-13T04:20:43.469Z,4.90
2023-02-13T04:23:17.211Z,5.10
2023-02-13T04:25:52.396Z,5.00
2023-02-13T04:28:25.199Z,3.93
2023-02-13T04:30:58.489Z,4.20
2023-02-13T04:33:31.591Z,4.10
2023-02-13T04:36:04.653Z,4.20
2023-02-13T04:38:37.900Z,4.50
2023-02-13T04:41:10.889Z,4.30
2023-02-13T04:43:43.935Z,4.10
2023-02-13T04:46:21.628Z,4.17
2023-02-13T04:48:52.552Z,4.30
2023-02-13T04:51:25.333Z,4.10
2023-02-13T04:53:58.089Z,4.00
2023-02-13T04:56:31.059Z,4.10
2023-02-13T04:59:04.094Z,4.27
2023-02-13T05:01:36.952Z,4.00
2023-02-13T05:04:10.019Z,3.90
2023-02-13T05:06:42.730Z,3.70
2023-02-13T05:09:15.608Z,3.70
2023-02-13T05:11:48.483Z,3.80
2023-02-13T05:14:21.356Z,3.80
2023-02-13T05:16:54.601Z,3.87
2023-02-13T05:19:27.507Z,3.80
2023-02-13T05:22:17.736Z,3.60
2023-02-13T05:24:51.664Z,3.90
2023-02-13T05:27:24.477Z,3.70
2023-02-13T05:29:57.332Z,3.90
2023-02-13T05:32:30.292Z,3.90
2023-02-13T05:35:04.516Z,3.90
2023-02-13T05:37:37.295Z,3.87
2023-02-13T05:40:11.155Z,3.70
2023-02-13T05:42:44.400Z,3.90
2023-02-13T05:45:18.408Z,4.10
2023-02-13T05:47:51.351Z,4.00
2023-02-13T05:50:28.471Z,4.10
2023-02-13T05:53:01.408Z,3.90
2023-02-13T05:55:34.364Z,3.90
2023-02-13T05:58:07.460Z,4.00
2023-02-13T06:00:40.438Z,4.10
2023-02-13T06:03:13.262Z,3.67
2023-02-13T06:05:46.009Z,3.70
2023-02-13T06:08:18.879Z,3.90
2023-02-13T06:10:53.278Z,3.80
2023-02-13T06:13:26.293Z,3.80
2023-02-13T06:15:59.601Z,3.60
2023-02-13T06:18:35.034Z,3.80
2023-02-13T06:21:08.382Z,3.87
2023-02-13T06:23:41.865Z,3.60
2023-02-13T06:26:15.010Z,3.70
2023-02-13T06:28:47.960Z,3.70
2023-02-13T06:31:25.230Z,3.80
2023-02-13T06:33:58.417Z,3.80
2023-02-13T06:36:31.353Z,3.90
2023-02-13T06:39:04.331Z,3.80
2023-02-13T06:41:37.443Z,3.90
2023-02-13T06:44:10.535Z,3.70
2023-02-13T06:46:43.530Z,3.60
2023-02-13T06:49:20.988Z,3.70
2023-02-13T06:51:54.012Z,3.53
2023-02-13T06:54:44.792Z,3.60
2023-02-13T06:57:00.960Z,3.50
2023-02-13T06:59:33.962Z,3.40
2023-02-13T07:02:07.027Z,3.60
2023-02-13T07:04:40.175Z,3.40
2023-02-13T07:07:13.124Z,3.50
2023-02-13T07:09:46.659Z,3.37
2023-02-13T07:12:19.477Z,3.80
2023-02-13T07:14:52.519Z,3.70
2023-02-13T07:17:25.373Z,3.80
2023-02-13T07:19:58.249Z,4.00
2023-02-13T07:22:31.103Z,4.00
2023-02-13T07:25:04.452Z,4.00
2023-02-13T07:27:37.257Z,3.93
2023-02-13T07:30:10.939Z,4.20
2023-02-13T07:32:43.874Z,4.10
2023-02-13T07:35:16.919Z,4.10
2023-02-13T07:37:49.851Z,4.20
2023-02-13T07:40:22.790Z,4.10
2023-02-13T07:42:55.617Z,4.00
2023-02-13T07:45:28.555Z,3.90
2023-02-13T07:48:02.064Z,4.00
2023-02-13T07:50:35.085Z,4.10
2023-02-13T07:53:07.992Z,3.80
2023-02-13T07:55:41.692Z,4.10
2023-02-13T07:58:14.530Z,4.00
2023-02-13T08:00:47.580Z,4.17
2023-02-13T08:03:20.711Z,4.20
2023-02-13T08:05:53.707Z,4.10
2023-02-13T08:08:26.488Z,4.00
2023-02-13T08:11:06.283Z,4.00
2023-02-13T08:13:39.377Z,4.10
2023-02-13T08:16:12.672Z,4.00
2023-02-13T08:18:45.591Z,4.10
2023-02-13T08:21:18.465Z,4.30
2023-02-13T08:23:52.851Z,4.10
2023-02-13T08:26:26.385Z,4.10
2023-02-13T08:28:59.470Z,4.00
2023-02-13T08:31:32.514Z,4.20
2023-02-13T08:34:05.637Z,4.20
2023-02-13T08:36:38.558Z,4.20
2023-02-13T08:39:12.466Z,4.27
2023-02-13T08:41:45.412Z,4.30
2023-02-13T08:44:18.260Z,4.20
2023-02-13T08:46:51.144Z,4.60
2023-02-13T08:49:25.462Z,4.40
2023-02-13T08:51:58.372Z,4.20
2023-02-13T08:54:31.452Z,4.20
2023-02-13T08:57:04.231Z,4.20
2023-02-13T08:59:37.348Z,4.30
2023-02-13T09:02:10.414Z,4.30
2023-02-13T09:04:43.484Z,4.20
2023-02-13T09:07:16.509Z,4.30
2023-02-13T09:09:49.224Z,4.50
2023-02-13T09:12:22.131Z,4.20
2023-02-13T09:14:55.087Z,4.30
2023-02-13T09:17:27.969Z,4.20
2023-02-13T09:20:00.857Z,4.30
2023-02-13T09:22:34.141Z,4.40
2023-02-13T09:25:07.141Z,4.27
2023-02-13T09:27:41.177Z,4.40
2023-02-13T09:30:16.234Z,4.50
2023-02-13T09:32:50.461Z,4.40
2023-02-13T09:35:27.964Z,4.50
2023-02-13T09:38:00.969Z,4.70
2023-02-13T09:40:35.625Z,4.60
2023-02-13T09:43:10.829Z,4.60
2023-02-13T09:45:44.708Z,4.70
2023-02-13T09:48:19.573Z,4.60
2023-02-13T09:50:52.619Z,4.70
2023-02-13T09:53:30.615Z,4.60
2023-02-13T09:56:23.412Z,4.70
2023-02-13T09:59:06.804Z,4.50
2023-02-13T10:01:44.439Z,4.60
2023-02-13T10:04:37.235Z,4.60
2023-02-13T10:07:30.319Z,4.90
2023-02-13T10:10:13.341Z,4.63
2023-02-13T10:12:51.090Z,4.80
2023-02-13T10:15:44.288Z,5.00
2023-02-13T10:18:18.057Z,5.20
2023-02-13T10:20:55.915Z,4.93
2023-02-13T10:23:36.501Z,4.80
2023-02-13T10:26:36.671Z,4.90
2023-02-13T10:29:29.275Z,5.23
2023-02-13T10:32:04.012Z,5.30
2023-02-13T10:34:39.153Z,5.40
2023-02-13T10:37:14.382Z,4.70
2023-02-13T10:39:49.016Z,4.90
2023-02-13T10:42:46.243Z,4.90
2023-02-13T10:45:26.949Z,4.60
2023-02-13T10:48:26.234Z,4.60
2023-02-13T10:51:01.445Z,4.80
2023-02-13T10:53:48.076Z,4.70
2023-02-13T10:56:38.248Z,4.60
2023-02-13T10:59:31.602Z,4.90
2023-02-13T11:02:15.438Z,4.80
2023-02-13T11:04:49.202Z,4.87
2023-02-13T11:07:23.541Z,4.80
2023-02-13T11:09:59.577Z,5.10
2023-02-13T11:12:37.204Z,5.00
2023-02-13T11:15:12.072Z,4.77
2023-02-13T11:17:46.401Z,4.90
2023-02-13T11:20:46.485Z,5.00
2023-02-13T11:23:36.615Z,4.70
2023-02-13T11:26:20.350Z,4.70
2023-02-13T11:29:04.820Z,4.50
2023-02-13T11:31:39.826Z,4.40
2023-02-13T11:34:29.608Z,4.47
2023-02-13T11:37:20.901Z,4.70
2023-02-13T11:39:55.722Z,4.80
2023-02-13T11:42:43.692Z,4.80
2023-02-13T11:45:32.416Z,4.80
2023-02-13T11:48:06.955Z,4.60
2023-02-13T11:50:42.997Z,4.50
2023-02-13T11:53:34.230Z,4.60
2023-02-13T11:56:08.945Z,5.00
2023-02-13T11:58:42.689Z,4.50
2023-02-13T12:01:26.533Z,4.50
2023-02-13T12:04:14.118Z,4.60
2023-02-13T12:07:04.334Z,4.80
2023-02-13T12:09:37.449Z,4.57
2023-02-13T12:12:11.858Z,4.70
2023-02-13T12:14:46.900Z,4.87
2023-02-13T12:17:31.677Z,4.80
2023-02-13T12:20:02.432Z,4.70
2023-02-13T12:22:39.995Z,4.50
2023-02-13T12:25:46.640Z,4.60
2023-02-13T12:28:33.351Z,4.90
2023-02-13T12:31:20.579Z,4.80
2023-02-13T12:34:13.407Z,4.90
2023-02-13T12:37:06.889Z,5.00
2023-02-13T12:39:41.293Z,5.10
2023-02-13T12:42:34.596Z,5.00
2023-02-13T12:45:30.763Z,5.00
2023-02-13T12:48:20.913Z,5.00
2023-02-13T12:51:14.039Z,4.80
2023-02-13T12:54:05.570Z,5.20
2023-02-13T12:57:01.811Z,5.20
2023-02-13T12:59:47.069Z,5.17
2023-02-13T13:02:34.119Z,5.20
2023-02-13T13:05:13.756Z,4.90
2023-02-13T13:08:06.543Z,4.90
2023-02-13T13:10:53.427Z,4.50
2023-02-13T13:13:33.842Z,4.70
2023-02-13T13:16:17.573Z,4.60
2023-02-13T13:19:17.834Z,4.93
2023-02-13T13:22:14.364Z,4.70
2023-02-13T13:24:52.497Z,4.70
2023-02-13T13:27:32.318Z,4.93
2023-02-13T13:30:10.776Z,4.70
2023-02-13T13:32:44.934Z,5.20
2023-02-13T13:35:18.778Z,5.20
2023-02-13T13:37:57.692Z,4.90
2023-02-13T13:40:47.980Z,5.00
2023-02-13T13:43:32.213Z,5.00
2023-02-13T13:46:22.013Z,4.70
2023-02-13T13:49:11.547Z,4.80
2023-02-13T13:51:44.487Z,4.90
2023-02-13T13:54:19.662Z,5.10
2023-02-13T13:57:00.947Z,5.10
2023-02-13T13:59:44.869Z,5.10
2023-02-13T14:02:25.890Z,5.00
2023-02-13T14:05:26.659Z,5.10
2023-02-13T14:08:01.604Z,4.80
2023-02-13T14:10:39.322Z,4.63
2023-02-13T14:13:12.500Z,4.40
2023-02-13T14:15:50.515Z,4.67
2023-02-13T14:18:25.703Z,4.80
2023-02-13T14:21:03.709Z,4.90
2023-02-13T14:23:44.326Z,4.90
2023-02-13T14:26:29.650Z,4.40
2023-02-13T14:29:04.342Z,4.70
2023-02-13T14:31:42.001Z,4.50
2023-02-13T14:34:21.090Z,4.80
2023-02-13T14:36:56.209Z,4.87
2023-02-13T14:39:39.486Z,4.50
2023-02-13T14:42:26.799Z,4.50
2023-02-13T14:45:01.910Z,4.50
2023-02-13T14:47:48.801Z,4.43
2023-02-13T14:50:23.748Z,4.50
2023-02-13T14:52:57.230Z,4.70
2023-02-13T14:55:34.529Z,4.50
2023-02-13T14:58:24.630Z,4.50
2023-02-13T15:01:08.584Z,5.13
2023-02-13T15:03:48.629Z,4.80
2023-02-13T15:06:29.384Z,4.80
2023-02-13T15:09:06.976Z,4.70
2023-02-13T15:11:47.116Z,4.50
2023-02-13T15:14:40.412Z,4.70
2023-02-13T15:17:18.190Z,4.90
2023-02-13T15:19:52.788Z,4.90
2023-02-13T15:22:36.595Z,4.97
2023-02-13T15:25:11.664Z,5.00
2023-02-13T15:27:48.461Z,4.83
2023-02-13T15:30:23.311Z,4.50
2023-02-13T15:33:07.058Z,4.67
2023-02-13T15:35:40.332Z,4.87
2023-02-13T15:38:37.713Z,4.60
2023-02-13T15:41:15.619Z,4.70
2023-02-13T15:43:52.357Z,4.53
2023-02-13T15:46:30.141Z,4.40
2023-02-13T15:49:10.480Z,4.80
2023-02-13T15:51:43.635Z,4.70
2023-02-13T15:54:36.270Z,4.73
2023-02-13T15:57:10.138Z,4.30
2023-02-13T15:59:43.976Z,4.60
2023-02-13T16:02:28.304Z,4.60
2023-02-13T16:05:02.226Z,4.70
2023-02-13T16:07:36.583Z,4.60
2023-02-13T16:10:23.823Z,4.77
2023-02-13T16:12:56.838Z,4.90
2023-02-13T16:15:31.828Z,4.77
2023-02-13T16:18:05.803Z,5.00
2023-02-13T16:20:41.575Z,5.20
2023-02-13T16:23:18.933Z,5.00
2023-02-13T16:25:52.722Z,5.00
2023-02-13T16:28:27.488Z,4.90
2023-02-13T16:31:05.966Z,4.90
2023-02-13T16:33:44.120Z,5.30
2023-02-13T16:36:19.494Z,5.00
2023-02-13T16:38:53.099Z,5.00
2023-02-13T16:41:33.926Z,5.10
2023-02-13T16:44:07.995Z,4.97
2023-02-13T16:46:45.318Z,4.70
2023-02-13T16:49:23.005Z,5.10
2023-02-13T16:52:15.885Z,5.00
2023-02-13T16:55:02.925Z,5.00
2023-02-13T16:57:38.803Z,5.17
2023-02-13T17:00:25.356Z,5.20
2023-02-13T17:02:57.475Z,5.30
2023-02-13T17:05:31.568Z,5.20
2023-02-13T17:08:05.171Z,5.00
2023-02-13T17:10:41.316Z,5.13
2023-02-13T17:13:23.447Z,5.10
2023-02-13T17:16:01.525Z,5.10
2023-02-13T17:18:34.665Z,5.07
2023-02-13T17:21:08.547Z,4.70
2023-02-13T17:23:42.171Z,4.80
2023-02-13T17:26:15.021Z,4.60
2023-02-13T17:28:48.023Z,4.47
2023-02-13T17:31:21.039Z,4.40
2023-02-13T17:33:54.721Z,4.70
2023-02-13T17:36:27.893Z,4.93
2023-02-13T17:39:00.702Z,4.90
2023-02-13T17:41:33.663Z,4.80
2023-02-13T17:44:06.829Z,4.73
2023-02-13T17:46:40.045Z,4.73
2023-02-13T17:49:14.219Z,4.80
2023-02-13T17:51:47.289Z,4.60
2023-02-13T17:54:20.498Z,4.60
2023-02-13T17:56:53.505Z,4.60
2023-02-13T17:59:26.453Z,4.50
2023-02-13T18:01:59.512Z,4.80
2023-02-13T18:04:32.445Z,5.60
2023-02-13T18:07:05.377Z,4.80
2023-02-13T18:09:38.370Z,5.00
2023-02-13T18:12:13.392Z,5.00
2023-02-13T18:14:46.311Z,5.30
2023-02-13T18:17:19.359Z,5.50
2023-02-13T18:19:52.805Z,5.20
2023-02-13T18:22:25.619Z,5.10
2023-02-13T18:24:58.406Z,5.30
2023-02-13T18:27:31.434Z,5.17
2023-02-13T18:30:04.184Z,4.87
2023-02-13T18:32:37.059Z,4.80
2023-02-13T18:35:10.804Z,5.10
2023-02-13T18:37:44.353Z,5.10
2023-02-13T18:40:20.982Z,5.47
2023-02-13T18:42:54.230Z,5.70
2023-02-13T18:45:27.115Z,6.10
2023-02-13T18:47:59.953Z,6.10
2023-02-13T18:50:32.803Z,5.80
2023-02-13T18:53:08.315Z,6.20
2023-02-13T18:55:41.146Z,6.53
2023-02-13T18:58:16.567Z,6.60
2023-02-13T19:00:49.549Z,6.50
2023-02-13T19:03:22.309Z,6.90
2023-02-13T19:05:55.313Z,7.10
2023-02-13T19:08:28.401Z,7.53
2023-02-13T19:11:05.747Z,7.50
2023-02-13T19:13:38.458Z,6.20
2023-02-13T19:16:17.313Z,7.80
2023-02-13T19:18:52.689Z,7.67
2023-02-13T19:21:30.079Z,7.90
2023-02-13T19:24:04.141Z,7.50
2023-02-13T19:26:36.967Z,7.40
2023-02-13T19:29:09.690Z,7.53
2023-02-13T19:31:42.673Z,7.13
2023-02-13T19:34:15.608Z,7.40
2023-02-13T19:36:48.369Z,7.50
2023-02-13T19:39:21.496Z,7.20
2023-02-13T19:41:54.220Z,7.63
2023-02-13T19:44:27.201Z,6.50
2023-02-13T19:47:00.047Z,6.60
2023-02-13T19:49:32.778Z,6.60
2023-02-13T19:52:05.604Z,6.70
2023-02-13T19:54:38.610Z,6.50
2023-02-13T19:57:11.437Z,6.70
2023-02-13T19:59:45.113Z,6.73
2023-02-13T20:02:19.053Z,6.70
2023-02-13T20:04:52.064Z,7.10
2023-02-13T20:07:25.004Z,7.00
2023-02-13T20:09:58.057Z,7.60
2023-02-13T20:12:30.904Z,7.17
2023-02-13T20:15:03.685Z,7.10
2023-02-13T20:17:37.374Z,7.50
2023-02-13T20:20:11.289Z,7.50
2023-02-13T20:22:44.107Z,7.80
2023-02-13T20:25:16.954Z,8.10
2023-02-13T20:27:49.924Z,7.90
2023-02-13T20:30:23.020Z,8.30
2023-02-13T20:32:55.951Z,8.60
2023-02-13T20:35:28.904Z,8.10
2023-02-13T20:38:02.236Z,8.60
2023-02-13T20:40:39.478Z,8.77
2023-02-13T20:43:12.399Z,8.60
2023-02-13T20:45:45.340Z,9.20
2023-02-13T20:48:18.760Z,8.70
2023-02-13T20:50:53.559Z,8.67
2023-02-13T20:53:29.029Z,8.60
2023-02-13T20:56:06.991Z,9.00
2023-02-13T20:58:40.561Z,9.47
2023-02-13T21:01:21.228Z,9.90
2023-02-13T21:03:57.938Z,10.00
2023-02-13T21:06:33.154Z,10.50
2023-02-13T21:09:07.190Z,11.00
2023-02-13T21:11:40.340Z,10.50
2023-02-13T21:14:14.628Z,11.40
2023-02-13T21:16:48.173Z,11.17
2023-02-13T21:19:22.338Z,10.90
2023-02-13T21:21:55.242Z,11.00
2023-02-13T21:24:28.202Z,10.70
2023-02-13T21:27:01.007Z,10.70
2023-02-13T21:29:34.105Z,11.50
2023-02-13T21:32:07.070Z,11.90
2023-02-13T21:34:40.576Z,13.00
2023-02-13T21:37:13.585Z,12.50
2023-02-13T21:39:48.775Z,13.30
2023-02-13T21:42:21.611Z,13.40
2023-02-13T21:44:56.957Z,12.80
2023-02-13T21:47:29.978Z,12.60
2023-02-13T21:50:03.086Z,13.40
2023-02-13T21:52:35.939Z,12.30
2023-02-13T21:55:09.059Z,12.27
2023-02-13T21:57:42.094Z,13.00
2023-02-13T22:00:16.138Z,14.07
2023-02-13T22:02:48.849Z,14.60
2023-02-13T22:05:21.942Z,13.47
2023-02-13T22:08:13.261Z,13.40
2023-02-13T22:10:46.248Z,14.50
2023-02-13T22:13:19.182Z,13.70
2023-02-13T22:15:52.046Z,13.83
2023-02-13T22:18:24.987Z,14.00
2023-02-13T22:20:58.048Z,14.47
2023-02-13T22:23:31.281Z,13.90
2023-02-13T22:26:04.513Z,13.90
2023-02-13T22:28:40.531Z,14.50
2023-02-13T22:31:14.447Z,14.30
2023-02-13T22:33:55.212Z,14.17
2023-02-13T22:36:23.421Z,13.70
2023-02-13T22:38:58.020Z,14.90
2023-02-13T22:41:31.361Z,14.70
2023-02-13T22:44:04.386Z,14.40
2023-02-13T22:46:37.766Z,14.50
2023-02-13T22:49:10.662Z,13.60
2023-02-13T22:51:43.753Z,13.73
2023-02-13T22:54:16.604Z,13.83
2023-02-13T22:56:49.646Z,14.20
2023-02-13T22:59:22.592Z,14.00
2023-02-13T23:01:55.716Z,13.67
2023-02-13T23:04:28.773Z,14.00
2023-02-13T23:07:01.723Z,13.73
2023-02-13T23:09:34.501Z,14.27
2023-02-13T23:12:25.162Z,14.23
2023-02-13T23:14:59.107Z,14.40
2023-02-13T23:17:49.057Z,13.50
2023-02-13T23:20:22.528Z,13.60
2023-02-13T23:22:55.983Z,14.10
2023-02-13T23:25:29.392Z,14.07
2023-02-13T23:28:02.272Z,13.90
2023-02-13T23:30:35.583Z,13.93
2023-02-13T23:33:12.624Z,13.40
2023-02-13T23:35:45.712Z,14.70
2023-02-13T23:38:18.659Z,13.83
2023-02-13T23:40:51.820Z,14.30
2023-02-13T23:43:27.875Z,14.27
2023-02-13T23:45:59.369Z,14.60
2023-02-13T23:48:32.081Z,14.60
2023-02-13T23:51:05.300Z,15.10
2023-02-13T23:53:39.196Z,14.40
2023-02-13T23:56:12.767Z,15.00
2023-02-13T23:58:45.682Z,15.67
